Time;durP1;ratioP1;P1;durP2;ratioP2;P2;SDS_P1;SDS_P2;PMS_P1;PMS_P2;Temp;Humidity;BMP_temperature;BMP_pressure;BME280_temperature;BME280_humidity;BME280_pressure;Samples;Min_cycle;Max_cycle;Signal;HPM_P1;HPM_P2
2021/04/04 05:42:27;;;;;;;;;;;;;;;;;;5273335;23;19964;-94
2021/04/04 05:44:53;;;;;;;;;;;;;;;;;;5047342;28;19999;-94
2021/04/04 05:47:20;;;;;;;;;;;;;;;;;;5042529;28;20299;-94
2021/04/04 05:49:46;;;;;;;;;;;;;;;;;;5044079;28;19917;-93
2021/04/04 05:52:12;;;;;;;;;;;;;;;;;;5052312;28;19920;-91
2021/04/04 05:54:38;;;;;;;;;;;;;;;;;;5045336;28;19912;-90
2021/04/04 05:57:04;;;;;;;;;;;;;;;;;;5043587;28;19917;-91
2021/04/04 05:59:30;;;;;;;;;;;;;;;;;;5047136;28;19917;-94
2021/04/04 06:01:56;;;;;;;;;;;;;;;;;;5047324;28;19924;-93
2021/04/04 06:04:23;;;;;;;;;;;;;;;;;;5041930;28;19913;-93
2021/04/04 06:06:49;;;;;;;;;;;;;;;;;;5047999;28;19912;-92
2021/04/04 06:09:19;;;;;;;;;;;;;;;;;;5045991;28;20050;-94
2021/04/04 06:11:45;;;;;;;;;;;;;;;;;;5048114;28;19997;-94
2021/04/04 06:14:11;;;;;;;;;;;;;;;;;;5043086;28;20697;-91
2021/04/04 06:16:37;;;;;;;;;;;;;;;;;;5046514;28;20012;-92
2021/04/04 06:19:03;;;;;;;;;;;;;;;;;;5044499;28;19912;-91
2021/04/04 06:21:32;;;;;;;;;;;;;;;;;;5044270;28;19931;-92
2021/04/04 06:23:58;;;;;;;;;;;;;;;;;;5043215;28;20015;-93
2021/04/04 06:26:24;;;;;;;;;;;;;;;;;;5040523;28;19916;-92
2021/04/04 06:28:50;;;;;;;;;;;;;;;;;;5059857;28;19956;-91
2021/04/04 06:31:16;;;;;;;;;;;;;;;;;;5042329;28;20303;-92
2021/04/04 06:33:42;;;;;;;;;;;;;;;;;;5043768;28;19927;-92
2021/04/04 06:36:08;;;;;;;;;;;;;;;;;;5033703;28;19946;-92
2021/04/04 06:38:35;;;;;;;;;;;;;;;;;;5051424;28;19951;-92
2021/04/04 06:41:02;;;;;;;;;;;;;;;;;;5053778;28;19916;-92
2021/04/04 06:43:28;;;;;;;;;;;;;;;;;;5050336;28;20003;-92
2021/04/04 06:45:55;;;;;;;;;;;;;;;;;;5051214;28;19917;-92
2021/04/04 06:48:21;;;;;;;;;;;;;;;;;;5039649;28;19920;-90
2021/04/04 06:50:47;;;;;;;;;;;;;;;;;;5052481;28;19916;-92
2021/04/04 06:53:14;;;;;;;;;;;;;;;;;;5044729;28;19916;-92
2021/04/04 06:55:40;;;;;;;;;;;;;;;;;;5044929;28;20371;-91
2021/04/04 06:58:06;;;;;;;;;;;;;;;;;;5055719;28;19936;-90
2021/04/04 07:00:32;;;;;;;;;;;;;;;;;;5043744;28;19920;-90
2021/04/04 07:02:58;;;;;;;;;;;;;;;;;;5049925;28;19931;-87
2021/04/04 07:05:25;;;;;;;;;;;;;;;;;;5040744;28;19978;-90
2021/04/04 07:07:51;;;;;;;;;;;;;;;;;;5053068;28;19916;-89
2021/04/04 07:10:20;;;;;;;;;;;;;;;;;;5044772;28;19917;-88
2021/04/04 07:12:46;;;;;;;;;;;;;;;;;;5053964;28;20011;-90
2021/04/04 07:15:12;;;;;;;;;;;;;;;;;;5042494;28;19921;-90
2021/04/04 07:17:38;;;;;;;;;;;;;;;;;;5049951;28;19912;-92
2021/04/04 07:20:04;;;;;;;;;;;;;;;;;;5050425;28;19916;-91
2021/04/04 07:22:31;;;;;;;;;;;;;;;;;;5044201;28;19924;-93
2021/04/04 07:24:58;;;;;;;;;;;;;;;;;;5047580;28;19951;-94
2021/04/04 07:27:24;;;;;;;;;;;;;;;;;;5054361;28;19984;-93
2021/04/04 07:29:51;;;;;;;;;;;;;;;;;;5053134;28;19973;-92
2021/04/04 07:32:18;;;;;;;;;;;;;;;;;;5056908;28;19939;-90
2021/04/04 07:34:47;;;;;;;;;;;;;;;;;;5062429;28;20327;-95
2021/04/04 07:37:17;;;;;;;;;;;;;;;;;;5058524;28;19936;-96
2021/04/04 07:39:44;;;;;;;;;;;;;;;;;;5068250;28;20041;-96
2021/04/04 07:42:18;;;;;;;;;;;;;;;;;;5027629;28;19930;-92
2021/04/04 07:44:45;;;;;;;;;;;;;;;;;;5034220;28;19913;-93
2021/04/04 07:47:12;;;;;;;;;;;;;;;;;;5027354;28;19914;-89
2021/04/04 07:49:39;;;;;;;;;;;;;;;;;;5035192;28;19964;-92
2021/04/04 07:52:05;;;;;;;;;;;;;;;;;;5025992;28;19928;-92
2021/04/04 07:54:31;;;;;;;;;;;;;;;;;;5024018;28;19917;-95
2021/04/04 07:56:57;;;;;;;;;;;;;;;;;;5022783;28;19979;-93
2021/04/04 07:59:23;;;;;;;;;;;;;;;;;;5015205;28;19917;-95
2021/04/04 08:01:49;;;;;;;;;;;;;;;;;;5021608;28;19917;-94
2021/04/04 08:04:15;;;;;;;;;;;;;;;;;;5022717;28;19917;-95
2021/04/04 08:06:41;;;;;;;;;;;;;;;;;;5018753;28;19913;-95
2021/04/04 08:09:08;;;;;;;;;;;;;;;;;;5024216;28;19936;-95
2021/04/04 08:11:34;;;;;;;;;;;;;;;;;;5023899;28;20711;-95
2021/04/04 08:14:00;;;;;;;;;;;;;;;;;;5026427;28;19913;-94
2021/04/04 08:16:26;;;;;;;;;;;;;;;;;;5017043;28;20272;-94
2021/04/04 08:18:52;;;;;;;;;;;;;;;;;;5020062;28;20321;-94
2021/04/04 08:21:18;;;;;;;;;;;;;;;;;;5024835;28;20299;-93
2021/04/04 08:23:44;;;;;;;;;;;;;;;;;;5020411;28;19970;-93
2021/04/04 08:26:10;;;;;;;;;;;;;;;;;;5017912;28;20276;-89
2021/04/04 08:28:36;;;;;;;;;;;;;;;;;;5015547;28;19924;-91
2021/04/04 08:31:02;;;;;;;;;;;;;;;;;;5018766;28;19929;-90
2021/04/04 08:33:28;;;;;;;;;;;;;;;;;;5017314;28;20132;-89
2021/04/04 08:35:54;;;;;;;;;;;;;;;;;;5019600;28;19918;-92
2021/04/04 08:38:20;;;;;;;;;;;;;;;;;;5017527;28;19983;-91
2021/04/04 08:40:46;;;;;;;;;;;;;;;;;;5023891;28;19920;-89
2021/04/04 08:43:12;;;;;;;;;;;;;;;;;;5050438;28;19924;-89
2021/04/04 08:45:39;;;;;;;;;;;;;;;;;;5051418;28;19982;-90
2021/04/04 08:48:05;;;;;;;;;;;;;;;;;;5048322;28;19978;-89
2021/04/04 08:50:31;;;;;;;;;;;;;;;;;;5053790;28;19916;-90
2021/04/04 08:52:57;;;;;;;;;;;;;;;;;;5064122;28;19920;-90
2021/04/04 08:55:24;;;;;;;;;;;;;;;;;;5048563;28;19974;-89
2021/04/04 08:57:50;;;;;;;;;;;;;;;;;;5046215;28;19973;-91
2021/04/04 09:00:17;;;;;;;;;;;;;;;;;;5060431;28;19923;-89
2021/04/04 09:02:44;;;;;;;;;;;;;;;;;;5046948;28;19964;-91
2021/04/04 09:05:10;;;;;;;;;;;;;;;;;;5055692;28;20436;-90
2021/04/04 09:07:36;;;;;;;;;;;;;;;;;;5059553;28;20473;-91
2021/04/04 09:10:05;;;;;;;;;;;;;;;;;;5057970;28;21123;-92
2021/04/04 09:12:34;;;;;;;;;;;;;;;;;;5041632;28;20961;-89
2021/04/04 09:15:00;;;;;;;;;;;;;;;;;;5048307;28;19939;-89
2021/04/04 09:17:28;;;;;;;;;;;;;;;;;;5052648;28;19920;-92
2021/04/04 09:19:55;;;;;;;;;;;;;;;;;;5052706;28;20800;-89
2021/04/04 09:25:13;;;;;;;;;;;;;;;;;;5060554;28;19924;-89
2021/04/04 09:27:43;;;;;;;;;;;;;;;;;;5047630;28;19912;-89
2021/04/04 09:30:12;;;;;;;;;;;;;;;;;;5048888;28;20252;-91
2021/04/04 09:32:39;;;;;;;;;;;;;;;;;;5047790;28;20368;-93
2021/04/04 09:35:08;;;;;;;;;;;;;;;;;;5060311;28;19928;-88
2021/04/04 09:37:36;;;;;;;;;;;;;;;;;;5185619;22;20071;-87
2021/04/04 09:40:09;;;;;;;;;;;;;;;;;;5054335;28;19920;-92
2021/04/04 09:48:18;;;;;;;;;;;;;;;;;;5042904;28;19971;-91
2021/04/04 09:50:45;;;;;;;;;;;;;;;;;;5042763;28;19922;-92
2021/04/04 09:53:13;;;;;;;;;;;;;;;;;;5043608;28;19913;-90
2021/04/04 09:55:40;;;;;;;;;;;;;;;;;;5043797;28;19917;-90
2021/04/04 09:58:11;;;;;;;;;;;;;;;;;;5040527;28;19916;-90
2021/04/04 10:00:43;;;;;;;;;;;;;;;;;;5046443;28;19917;-91
2021/04/04 10:03:10;;;;;;;;;;;;;;;;;;5045126;28;20333;-91
2021/04/04 10:05:39;;;;;;;;;;;;;;;;;;5040595;28;19920;-88
2021/04/04 10:08:06;;;;;;;;;;;;;;;;;;5040262;28;20019;-87
2021/04/04 10:10:32;;;;;;;;;;;;;;;;;;5042082;28;19921;-90
2021/04/04 10:12:59;;;;;;;;;;;;;;;;;;5044858;28;20660;-90
2021/04/04 10:15:25;;;;;;;;;;;;;;;;;;5041566;28;19913;-91
2021/04/04 10:17:51;;;;;;;;;;;;;;;;;;5044583;28;19917;-92
2021/04/04 10:20:18;;;;;;;;;;;;;;;;;;5037618;28;19921;-91
2021/04/04 10:22:47;;;;;;;;;;;;;;;;;;5044276;28;20432;-91
2021/04/04 10:25:17;;;;;;;;;;;;;;;;;;5041367;28;19916;-92
2021/04/04 10:27:44;;;;;;;;;;;;;;;;;;5041245;28;19917;-91
2021/04/04 10:30:15;;;;;;;;;;;;;;;;;;5042898;28;19912;-93
2021/04/04 10:32:42;;;;;;;;;;;;;;;;;;5037915;28;20307;-93
2021/04/04 10:35:09;;;;;;;;;;;;;;;;;;5042684;28;20260;-93
2021/04/04 10:40:27;;;;;;;;;;;;;;;;;;5024802;28;19943;-92
2021/04/04 10:42:54;;;;;;;;;;;;;;;;;;5029860;28;19924;-92
2021/04/04 10:45:29;;;;;;;;;;;;;;;;;;5028740;28;19916;-91
2021/04/04 10:48:00;;;;;;;;;;;;;;;;;;5041097;28;20384;-92
2021/04/04 10:50:28;;;;;;;;;;;;;;;;;;5027902;28;19913;-87
2021/04/04 10:52:58;;;;;;;;;;;;;;;;;;5020472;28;20131;-87
2021/04/04 10:55:30;;;;;;;;;;;;;;;;;;5038350;28;19923;-87
2021/04/04 10:57:56;;;;;;;;;;;;;;;;;;5042066;28;19913;-88
2021/04/04 11:00:24;;;;;;;;;;;;;;;;;;5020226;28;19921;-88
2021/04/04 11:02:50;;;;;;;;;;;;;;;;;;5026392;28;19968;-88
2021/04/04 11:05:16;;;;;;;;;;;;;;;;;;5024973;28;19914;-88
2021/04/04 11:07:45;;;;;;;;;;;;;;;;;;5024502;28;20321;-88
2021/04/04 11:10:19;;;;;;;;;;;;;;;;;;5021941;28;20003;-88
2021/04/04 11:12:46;;;;;;;;;;;;;;;;;;5019975;28;20027;-87
2021/04/04 11:15:12;;;;;;;;;;;;;;;;;;5020759;28;19917;-88
2021/04/04 11:17:38;;;;;;;;;;;;;;;;;;5021266;28;20279;-88
2021/04/04 11:20:04;;;;;;;;;;;;;;;;;;5020305;28;19917;-87
2021/04/04 11:22:30;;;;;;;;;;;;;;;;;;5024848;28;19921;-90
2021/04/04 11:24:58;;;;;;;;;;;;;;;;;;5023991;28;19921;-91
2021/04/04 11:27:43;;;;;;;;;;;;;;;;;;5026173;28;20490;-88
2021/04/04 11:30:21;;;;;;;;;;;;;;;;;;5021805;28;20377;-88
2021/04/04 11:32:50;;;;;;;;;;;;;;;;;;5021555;28;19955;-91
2021/04/04 11:35:19;;;;;;;;;;;;;;;;;;5022464;28;19917;-87
2021/04/04 11:37:50;;;;;;;;;;;;;;;;;;5017199;28;19930;-89
2021/04/04 11:40:19;;;;;;;;;;;;;;;;;;5018046;28;19945;-89
2021/04/04 11:42:47;;;;;;;;;;;;;;;;;;5022596;28;20306;-88
2021/04/04 11:45:24;;;;;;;;;;;;;;;;;;5010983;28;20016;-87
2021/04/04 11:48:00;;;;;;;;;;;;;;;;;;5020278;28;19928;-88
2021/04/04 11:50:31;;;;;;;;;;;;;;;;;;5019303;28;19927;-88
2021/04/04 11:53:00;;;;;;;;;;;;;;;;;;5016586;28;19956;-87
2021/04/04 11:55:31;;;;;;;;;;;;;;;;;;5017171;28;19976;-89
2021/04/04 11:58:02;;;;;;;;;;;;;;;;;;5024919;28;19913;-88
2021/04/04 12:00:31;;;;;;;;;;;;;;;;;;5019108;28;20334;-88
2021/04/04 12:03:02;;;;;;;;;;;;;;;;;;5023650;28;19918;-88
2021/04/04 12:05:31;;;;;;;;;;;;;;;;;;5020306;28;20299;-89
2021/04/04 12:08:02;;;;;;;;;;;;;;;;;;5024201;28;19941;-88
2021/04/04 12:10:31;;;;;;;;;;;;;;;;;;5018418;28;19923;-90
2021/04/04 12:13:03;;;;;;;;;;;;;;;;;;5021077;28;19967;-90
2021/04/04 12:15:31;;;;;;;;;;;;;;;;;;5018219;28;20020;-89
2021/04/04 12:18:12;;;;;;;;;;;;;;;;;;5020167;28;19917;-90
2021/04/04 12:20:42;;;;;;;;;;;;;;;;;;5018377;28;19917;-88
2021/04/04 12:23:11;;;;;;;;;;;;;;;;;;5017844;28;19933;-89
2021/04/04 12:25:52;;;;;;;;;;;;;;;;;;5017992;28;19917;-89
2021/04/04 12:28:26;;;;;;;;;;;;;;;;;;5018337;28;20059;-88
2021/04/04 12:31:16;;;;;;;;;;;;;;;;;;5019135;28;19967;-90
2021/04/04 12:33:43;;;;;;;;;;;;;;;;;;5020404;28;20273;-90
2021/04/04 12:36:16;;;;;;;;;;;;;;;;;;5023107;28;19920;-90
2021/04/04 12:41:43;;;;;;;;;;;;;;;;;;5018242;28;20362;-90
2021/04/04 12:44:16;;;;;;;;;;;;;;;;;;5020182;28;19914;-90
2021/04/04 12:47:06;;;;;;;;;;;;;;;;;;;;;
2021/04/04 12:49:53;;;;;;;;;;;;;;;;;;5014098;28;20399;-90
2021/04/04 12:55:11;;;;;;;;;;;;;;;;;;5007419;28;19944;-90
2021/04/04 12:57:55;;;;;;;;;;;;;;;;;;;;;
2021/04/04 13:00:25;;;;;;;;;;;;;;;;;;5014221;28;19924;-89
2021/04/04 13:03:07;;;;;;;;;;;;;;;;;;5021966;28;20011;-90
2021/04/04 13:05:48;;;;;;;;;;;;;;;;;;5011999;28;21450;-89
2021/04/04 13:14:09;;;;;;;;;;;;;;;;;;;;;
2021/04/04 13:19:47;;;;;;;;;;;;;;;;;;5004140;28;20367;-90
2021/04/04 13:25:25;;;;;;;;;;;;;;;;;;5024189;28;19944;-90
2021/04/04 13:27:55;;;;;;;;;;;;;;;;;;5023403;28;19924;-92
2021/04/04 13:30:21;;;;;;;;;;;;;;;;;;5019844;28;19924;-93
2021/04/04 13:38:32;;;;;;;;;;;;;;;;;;5045185;28;20450;-87
2021/04/04 13:40:59;;;;;;;;;;;;;;;;;;5044679;28;19917;-92
2021/04/04 13:43:27;;;;;;;;;;;;;;;;;;5046096;28;19928;-92
2021/04/04 13:45:54;;;;;;;;;;;;;;;;;;5029110;28;19998;-93
2021/04/04 13:48:29;;;;;;;;;;;;;;;;;;5040516;28;21038;-94
2021/04/04 13:50:56;;;;;;;;;;;;;;;;;;5028817;28;19918;-88
2021/04/04 13:53:23;;;;;;;;;;;;;;;;;;5022704;28;19960;-88
2021/04/04 13:55:49;;;;;;;;;;;;;;;;;;5040233;28;20001;-91
2021/04/04 13:58:16;;;;;;;;;;;;;;;;;;5020563;28;20217;-90
2021/04/04 14:00:42;;;;;;;;;;;;;;;;;;5023989;28;20347;-89
2021/04/04 14:03:08;;;;;;;;;;;;;;;;;;5024638;28;19917;-88
2021/04/04 14:05:35;;;;;;;;;;;;;;;;;;5026350;28;20363;-91
2021/04/04 14:08:01;;;;;;;;;;;;;;;;;;5022238;28;20532;-89
2021/04/04 14:10:27;;;;;;;;;;;;;;;;;;5040032;28;20015;-91
2021/04/04 14:12:53;;;;;;;;;;;;;;;;;;5040080;28;19917;-90
2021/04/04 14:15:21;;;;;;;;;;;;;;;;;;5021304;28;19917;-95
2021/04/04 14:17:47;;;;;;;;;;;;;;;;;;5025804;28;20030;-94
2021/04/04 14:20:14;;;;;;;;;;;;;;;;;;5024080;28;20371;-92
2021/04/04 14:22:40;;;;;;;;;;;;;;;;;;5025175;28;19924;-92
2021/04/04 14:25:06;;;;;;;;;;;;;;;;;;5040240;28;19917;-91
2021/04/04 14:27:32;;;;;;;;;;;;;;;;;;5024208;28;19927;-90
2021/04/04 14:29:58;;;;;;;;;;;;;;;;;;5039117;28;19917;-91
2021/04/04 14:32:24;;;;;;;;;;;;;;;;;;5023919;28;20295;-90
2021/04/04 14:34:50;;;;;;;;;;;;;;;;;;5024852;28;19917;-92
2021/04/04 14:37:16;;;;;;;;;;;;;;;;;;5026902;28;19913;-89
2021/04/04 14:39:42;;;;;;;;;;;;;;;;;;5024645;28;19925;-90
2021/04/04 14:42:08;;;;;;;;;;;;;;;;;;5040010;28;19983;-90
2021/04/04 14:44:37;;;;;;;;;;;;;;;;;;5023321;28;19916;-90
2021/04/04 14:47:06;;;;;;;;;;;;;;;;;;5025526;28;19916;-90
2021/04/04 14:49:32;;;;;;;;;;;;;;;;;;5024379;28;19927;-90
2021/04/04 14:51:58;;;;;;;;;;;;;;;;;;5044601;28;19995;-89
2021/04/04 14:54:25;;;;;;;;;;;;;;;;;;5022555;28;19916;-89
2021/04/04 14:56:53;;;;;;;;;;;;;;;;;;5043120;28;19917;-92
2021/04/04 14:59:21;;;;;;;;;;;;;;;;;;5025113;28;19916;-90
2021/04/04 15:01:47;;;;;;;;;;;;;;;;;;5024830;28;19918;-91
2021/04/04 15:04:13;;;;;;;;;;;;;;;;;;5023630;28;20376;-89
2021/04/04 15:06:39;;;;;;;;;;;;;;;;;;5024332;28;20342;-91
2021/04/04 15:09:05;;;;;;;;;;;;;;;;;;5024538;28;19913;-90
2021/04/04 15:11:31;;;;;;;;;;;;;;;;;;5025006;28;19929;-90
2021/04/04 15:13:57;;;;;;;;;;;;;;;;;;5042730;28;19916;-92
2021/04/04 15:16:23;;;;;;;;;;;;;;;;;;5025342;28;19921;-91
2021/04/04 15:18:49;;;;;;;;;;;;;;;;;;5035370;28;19947;-92
2021/04/04 15:21:19;;;;;;;;;;;;;;;;;;5040364;28;19967;-92
2021/04/04 15:23:46;;;;;;;;;;;;;;;;;;5028348;28;19927;-91
2021/04/04 15:26:12;;;;;;;;;;;;;;;;;;5041860;28;20368;-92
2021/04/04 15:28:38;;;;;;;;;;;;;;;;;;5023822;28;19917;-91
2021/04/04 15:31:04;;;;;;;;;;;;;;;;;;5025760;28;19917;-90
2021/04/04 15:33:30;;;;;;;;;;;;;;;;;;5032071;28;20371;-90
2021/04/04 15:35:56;;;;;;;;;;;;;;;;;;5055699;28;19996;-91
2021/04/04 15:38:22;;;;;;;;;;;;;;;;;;5051782;28;19943;-90
2021/04/04 15:40:48;;;;;;;;;;;;;;;;;;5052477;28;19908;-90
2021/04/04 15:43:14;;;;;;;;;;;;;;;;;;5051736;28;19917;-90
2021/04/04 15:45:59;;;;;;;;;;;;;;;;;;5051848;28;19897;-89
2021/04/04 15:48:26;;;;;;;;;;;;;;;;;;5061143;28;20003;-90
2021/04/04 15:50:52;;;;;;;;;;;;;;;;;;5053288;28;19944;-90
2021/04/04 15:53:18;;;;;;;;;;;;;;;;;;5045467;28;19924;-91
2021/04/04 15:55:44;;;;;;;;;;;;;;;;;;5058958;28;19952;-93
2021/04/04 15:58:18;;;;;;;;;;;;;;;;;;5068929;28;19939;-91
2021/04/04 16:03:42;;;;;;;;;;;;;;;;;;5075375;28;19924;-90
2021/04/04 16:06:15;;;;;;;;;;;;;;;;;;5056560;28;19980;-91
2021/04/04 16:17:13;;;;;;;;;;;;;;;;;;5100266;28;19946;-91
2021/04/04 16:19:49;;;;;;;;;;;;;;;;;;5099312;28;19918;-92
2021/04/04 16:22:48;;;;;;;;;;;;;;;;;;5106301;23;19989;-90
2021/04/04 16:25:34;;;;;;;;;;;;;;;;;;5091884;28;19901;-91
2021/04/04 16:42:03;;;;;;;;;;;;;;;;;;1687378;23;20132;-91
2021/04/04 16:44:41;;;;;;;;;;;;;;;;;;5060102;28;19979;-90
2021/04/04 16:47:07;;;;;;;;;;;;;;;;;;5061247;28;19967;-89
2021/04/04 16:52:25;;;;;;;;;;;;;;;;;;5065680;28;19919;-90
2021/04/04 16:54:53;;;;;;;;;;;;;;;;;;5069965;28;19917;-88
2021/04/04 16:57:19;;;;;;;;;;;;;;;;;;5043508;28;19924;-88
2021/04/04 16:59:46;;;;;;;;;;;;;;;;;;5069584;28;19897;-91
2021/04/04 17:02:18;;;;;;;;;;;;;;;;;;5074201;28;19928;-89
2021/04/04 17:10:10;;;;;;;;;;;;;;;;;;5847358;23;20003;-91
